KCCY/CCY METAR and TAF weather

Enter ICAO airport designator
Station Type Date Time Source
KCCY METAR 2020/06/02 18:55 UTC NOAA

KCCY 021855Z AUTO 20010KT 10SM CLR 32/20 A2983 RMK AO2


Station Type Date Time Source
KCCY Decoded METAR 2020/06/02 18:55 UTC NOAA

Charles City, IA, United States (KCCY) 43-04N 092-37W
Jun 02, 2020 - 02:55 PM EDT / 2020.06.02 1855 UTC
Wind: from the SSW (200 degrees) at 12 MPH (10 KT):0
Visibility: 10 mile(s):0
Sky conditions: clear
Temperature: 89 F (32 C)
Dew Point: 68 F (20 C)
Relative Humidity: 49%
Pressure (altimeter): 29.83 in. Hg (1010 hPa)
ob: KCCY 021855Z AUTO 20010KT 10SM CLR 32/20 A2983 RMK AO2
cycle: 19

Station Type Date Time Source
KCCY TAF UTC NOAA

Error!

Example: see airport list